Time;durP1;ratioP1;P1;durP2;ratioP2;P2;SDS_P1;SDS_P2;PMS_P1;PMS_P2;Temp;Humidity;BMP_temperature;BMP_pressure;BME280_temperature;BME280_humidity;BME280_pressure;Samples;Min_cycle;Max_cycle;Signal;HPM_P1;HPM_P2
2021/12/24 00:01:03;;;;;;;;;;;5.80;99.90;;;;;;4967062;28;20360;-61
2021/12/24 00:03:29;;;;;;;227.98;63.42;;;5.80;99.90;;;;;;4948354;28;19922;-61
2021/12/24 00:05:55;;;;;;;245.77;63.97;;;5.80;99.90;;;;;;4950652;28;20106;-61
2021/12/24 00:08:22;;;;;;;245.27;68.40;;;5.80;99.90;;;;;;4950622;28;20055;-61
2021/12/24 00:10:57;;;;;;;272.17;68.35;;;5.80;99.90;;;;;;4967287;28;20055;-62
2021/12/24 00:13:23;;;;;;;242.07;67.43;;;5.80;99.90;;;;;;4950392;28;20043;-61
2021/12/24 00:18:44;;;;;;;251.48;64.88;;;5.80;99.90;;;;;;4949169;28;20047;-61
2021/12/24 00:37:28;;;;;;;194.60;54.67;;;6.10;99.90;;;;;;4949753;29;20057;-61
2021/12/24 00:40:08;;;;;;;194.02;54.58;;;6.10;99.90;;;;;;4932047;29;20059;-61
2021/12/24 00:42:34;;;;;;;160.93;52.47;;;6.10;99.90;;;;;;4947199;29;20135;-61
2021/12/24 00:45:00;;;;;;;202.50;56.47;;;6.10;99.90;;;;;;4948618;29;20047;-61
2021/12/24 00:47:27;;;;;;;138.20;48.47;;;6.20;99.90;;;;;;4948896;29;20054;-61
2021/12/24 00:49:53;;;;;;;160.73;49.92;;;6.20;99.90;;;;;;4950091;28;20114;-61
2021/12/24 00:55:09;;;;;;;137.05;45.13;;;6.30;99.90;;;;;;4953893;28;20050;-61
2021/12/24 00:57:38;;;;;;;110.97;40.83;;;6.30;99.90;;;;;;4967641;28;20574;-62
2021/12/24 01:00:10;;;;;;;120.38;42.58;;;6.30;99.90;;;;;;4932140;29;20125;-62
2021/12/24 01:02:36;;;;;;;108.18;40.78;;;6.30;99.90;;;;;;4951479;28;20053;-60
2021/12/24 01:05:04;;;;;;;105.43;39.30;;;6.40;99.90;;;;;;4950011;29;20479;-60
2021/12/24 01:07:30;;;;;;;87.28;36.95;;;6.40;99.90;;;;;;4965695;28;20086;-60
2021/12/24 01:09:57;;;;;;;88.93;36.80;;;6.50;99.90;;;;;;4950185;29;20050;-60
2021/12/24 01:12:24;;;;;;;88.85;35.78;;;6.50;99.90;;;;;;4966032;28;20468;-60
2021/12/24 01:14:50;;;;;;;107.82;37.30;;;6.60;99.90;;;;;;4950906;29;20058;-60
2021/12/24 01:19:46;;;;;;;94.57;36.15;;;6.60;99.90;;;;;;4950716;28;20519;-60
2021/12/24 01:25:16;;;;;;;79.93;34.30;;;6.60;99.90;;;;;;4950395;28;20565;-61
2021/12/24 01:28:04;;;;;;;71.20;30.55;;;6.70;99.90;;;;;;4963602;28;20059;-61
2021/12/24 01:41:20;;;;;;;78.18;31.83;;;6.90;99.90;;;;;;4932965;29;20066;-61
2021/12/24 01:43:46;;;;;;;72.63;31.00;;;6.90;99.90;;;;;;4948711;28;20082;-61
2021/12/24 01:46:12;;;;;;;71.07;31.67;;;6.90;99.90;;;;;;4931178;28;20069;-61
2021/12/24 01:48:41;;;;;;;73.32;31.00;;;6.90;99.90;;;;;;4951308;28;20043;-61
2021/12/24 01:51:07;;;;;;;69.30;29.52;;;6.90;99.90;;;;;;4948093;29;20054;-61
2021/12/24 01:53:47;;;;;;;62.83;27.88;;;6.90;99.90;;;;;;4929805;29;20098;-59
2021/12/24 01:56:13;;;;;;;48.47;25.10;;;6.90;99.90;;;;;;4949023;28;20047;-62
2021/12/24 01:58:40;;;;;;;56.80;26.95;;;7.00;99.90;;;;;;4960432;28;20058;-61
2021/12/24 02:01:06;;;;;;;47.63;26.17;;;7.00;99.90;;;;;;4950243;28;20043;-61
2021/12/24 02:03:32;;;;;;;57.13;27.55;;;7.00;99.90;;;;;;4917950;28;20554;-61
2021/12/24 02:05:58;;;;;;;63.63;26.85;;;7.00;99.90;;;;;;4948721;29;20051;-62
2021/12/24 02:08:24;;;;;;;58.15;26.25;;;7.00;99.90;;;;;;4950106;28;20138;-62
2021/12/24 02:10:51;;;;;;;55.47;25.85;;;7.00;99.90;;;;;;4950269;29;20547;-61
2021/12/24 02:13:19;;;;;;;48.00;24.27;;;7.00;99.90;;;;;;4916634;29;20074;-62
2021/12/24 02:16:06;;;;;;;46.33;23.90;;;7.10;99.90;;;;;;4948584;29;20043;-62
2021/12/24 02:29:22;;;;;;;44.33;23.42;;;7.20;99.90;;;;;;4948437;29;20047;-62
2021/12/24 02:31:48;;;;;;;48.95;23.90;;;7.20;99.90;;;;;;4947986;28;20050;-61
2021/12/24 02:34:14;;;;;;;47.00;22.85;;;7.20;99.90;;;;;;4947163;29;20073;-62
2021/12/24 02:36:42;;;;;;;44.50;22.88;;;7.30;99.90;;;;;;4945477;29;20055;-62
2021/12/24 02:39:08;;;;;;;48.35;24.83;;;7.30;99.90;;;;;;4946397;29;20055;-61
2021/12/24 02:41:34;;;;;;;47.63;23.15;;;7.30;99.90;;;;;;4945854;28;20157;-62
2021/12/24 02:44:00;;;;;;;47.78;23.35;;;7.30;99.90;;;;;;4947891;28;20400;-61
2021/12/24 02:46:37;;;;;;;43.83;24.00;;;7.40;99.90;;;;;;4946947;29;20043;-61
2021/12/24 02:53:56;;;;;;;62.28;26.08;;;7.40;99.90;;;;;;4947107;29;20454;-61
2021/12/24 02:54:37;;;;;;;55.13;25.55;;;7.40;99.90;;;;;;4946781;29;20799;-61
2021/12/24 02:57:09;;;;;;;55.28;24.80;;;7.50;99.90;;;;;;4947933;29;20047;-61
2021/12/24 02:59:46;;;;;;;57.78;25.45;;;7.50;99.90;;;;;;4930602;29;20051;-61
2021/12/24 03:02:12;;;;;;;55.15;25.67;;;7.50;99.90;;;;;;4949047;29;20440;-61
2021/12/24 03:04:39;;;;;;;61.97;26.33;;;7.60;99.90;;;;;;4932433;28;20062;-61
2021/12/24 03:07:05;;;;;;;61.15;27.13;;;7.60;99.90;;;;;;4964447;28;20538;-61
2021/12/24 03:09:31;;;;;;;51.70;26.55;;;7.60;99.90;;;;;;4949901;28;20061;-62
2021/12/24 03:11:58;;;;;;;56.03;26.70;;;7.70;99.90;;;;;;4932534;29;20055;-62
2021/12/24 03:14:25;;;;;;;62.28;26.85;;;7.70;99.90;;;;;;4948675;29;20051;-61
2021/12/24 03:16:57;;;;;;;60.35;26.08;;;7.70;99.90;;;;;;4964248;28;20129;-62
2021/12/24 03:19:29;;;;;;;54.38;25.95;;;7.70;99.90;;;;;;4964471;28;20056;-62
2021/12/24 03:21:59;;;;;;;54.75;24.35;;;7.70;99.90;;;;;;4947837;29;20050;-62
2021/12/24 03:26:53;;;;;;;71.97;25.63;;;7.80;99.90;;;;;;4950093;29;20047;-62
2021/12/24 03:29:20;;;;;;;63.72;25.83;;;7.90;99.90;;;;;;4949698;29;20561;-61
2021/12/24 03:31:48;;;;;;;51.25;22.45;;;7.90;99.90;;;;;;4949952;29;20051;-62
2021/12/24 03:34:18;;;;;;;52.58;21.55;;;7.90;99.90;;;;;;4950444;29;20047;-62
2021/12/24 03:36:44;;;;;;;50.38;21.33;;;8.00;99.90;;;;;;4948027;29;20059;-62
2021/12/24 03:39:13;;;;;;;48.25;21.05;;;8.00;99.90;;;;;;4934669;29;20078;-62
2021/12/24 03:41:40;;;;;;;46.05;20.35;;;8.10;99.90;;;;;;4948959;28;20039;-62
2021/12/24 03:44:09;;;;;;;40.17;19.10;;;8.10;99.90;;;;;;4950973;28;20403;-61
2021/12/24 03:47:39;;;;;;;37.35;18.58;;;8.20;99.90;;;;;;4949363;28;20051;-61
2021/12/24 03:49:40;;;;;;;39.03;18.70;;;8.20;99.90;;;;;;4958206;28;20054;-62
2021/12/24 03:54:57;;;;;;;35.40;17.38;;;8.20;99.90;;;;;;4948974;28;20099;-62
2021/12/24 03:57:29;;;;;;;36.40;18.20;;;8.30;99.90;;;;;;4949516;29;20069;-62
2021/12/24 04:00:18;;;;;;;36.03;18.08;;;8.30;99.90;;;;;;4950073;29;20122;-61
2021/12/24 04:02:45;;;;;;;36.38;20.10;;;8.30;99.90;;;;;;4951894;28;20055;-62
2021/12/24 04:05:26;;;;;;;43.03;21.58;;;8.40;99.90;;;;;;4949988;29;20044;-62
2021/12/24 04:08:10;;;;;;;46.05;22.02;;;8.40;99.90;;;;;;4963371;28;20559;-62
2021/12/24 04:10:52;;;;;;;60.15;26.55;;;8.40;99.90;;;;;;4949876;29;20055;-62
2021/12/24 04:13:33;;;;;;;60.38;27.60;;;8.40;99.90;;;;;;4936507;29;20036;-61
2021/12/24 04:16:00;;;;;;;56.70;27.42;;;8.40;99.90;;;;;;4933253;29;20058;-61
2021/12/24 04:26:27;;;;;;;65.88;30.50;;;8.50;99.90;;;;;;4950575;28;20587;-59
2021/12/24 04:28:55;;;;;;;58.88;29.15;;;8.50;99.90;;;;;;4948760;29;20043;-59
2021/12/24 04:31:27;;;;;;;62.08;30.92;;;8.50;99.90;;;;;;4933547;29;20043;-62
2021/12/24 04:34:10;;;;;;;57.58;30.23;;;8.50;99.90;;;;;;4930875;28;20121;-62
2021/12/24 04:36:56;;;;;;;69.53;33.22;;;8.50;99.90;;;;;;4948974;29;20079;-62
2021/12/24 05:03:42;;;;;;;70.20;35.22;;;8.50;99.90;;;;;;4947249;28;20109;-61
2021/12/24 05:08:51;;;;;;;80.15;35.75;;;8.60;99.90;;;;;;4950314;28;20058;-60
2021/12/24 05:11:18;;;;;;;67.80;33.30;;;8.50;99.90;;;;;;4918669;29;20074;-61
2021/12/24 05:13:45;;;;;;;62.05;32.63;;;8.50;99.90;;;;;;4934073;29;20498;-61
2021/12/24 05:16:48;;;;;;;63.28;31.73;;;8.50;99.90;;;;;;4940280;28;20059;-61
2021/12/24 05:22:23;;;;;;;62.25;30.80;;;8.50;99.90;;;;;;4965443;28;20506;-61
2021/12/24 05:24:49;;;;;;;57.15;30.60;;;8.50;99.90;;;;;;4932984;29;20055;-61
2021/12/24 05:27:17;;;;;;;59.47;30.00;;;8.50;99.90;;;;;;4964500;28;20098;-61
2021/12/24 05:29:43;;;;;;;53.80;30.70;;;8.50;99.90;;;;;;4951043;28;20043;-61
2021/12/24 05:32:09;;;;;;;61.63;31.38;;;8.50;99.90;;;;;;4950700;28;20044;-61
2021/12/24 05:34:35;;;;;;;59.80;30.25;;;8.50;99.90;;;;;;4932882;29;20050;-61
2021/12/24 05:37:02;;;;;;;58.85;30.27;;;8.50;99.90;;;;;;4964640;28;20135;-61
2021/12/24 05:39:29;;;;;;;65.65;33.72;;;8.50;99.90;;;;;;4947715;29;20827;-61
2021/12/24 05:41:55;;;;;;;62.58;33.08;;;8.50;99.90;;;;;;4947393;29;20051;-61
2021/12/24 05:44:23;;;;;;;63.65;33.72;;;8.50;99.90;;;;;;4931143;29;20046;-61
2021/12/24 05:47:00;;;;;;;63.72;31.58;;;8.50;99.90;;;;;;4930706;29;20051;-61
2021/12/24 05:49:47;;;;;;;61.45;33.08;;;8.50;99.90;;;;;;4946125;29;20042;-61
2021/12/24 05:52:33;;;;;;;54.78;28.58;;;8.60;99.90;;;;;;4948122;29;20479;-61
2021/12/24 05:55:18;;;;;;;54.50;30.00;;;8.50;99.90;;;;;;4947028;29;20074;-60
2021/12/24 05:57:47;;;;;;;60.83;30.98;;;8.60;99.90;;;;;;4931128;29;20584;-61
2021/12/24 06:00:13;;;;;;;53.83;28.88;;;8.50;99.90;;;;;;4916310;28;20577;-61
2021/12/24 06:02:40;;;;;;;45.38;27.92;;;8.60;99.90;;;;;;4947659;29;20059;-61
2021/12/24 06:05:07;;;;;;;46.55;27.92;;;8.60;99.90;;;;;;4951407;28;20163;-61
2021/12/24 06:07:33;;;;;;;50.53;26.45;;;8.60;99.90;;;;;;4945886;29;20071;-60
2021/12/24 06:09:59;;;;;;;48.47;26.10;;;8.60;99.90;;;;;;4949048;28;20122;-60
2021/12/24 06:12:25;;;;;;;43.08;24.80;;;8.50;99.90;;;;;;4942787;29;20057;-60
2021/12/24 06:14:55;;;;;;;47.03;23.48;;;8.60;99.90;;;;;;4945124;28;20047;-61
2021/12/24 06:17:23;;;;;;;45.42;23.10;;;8.60;99.90;;;;;;4948762;29;20047;-61
2021/12/24 06:19:49;;;;;;;38.67;21.38;;;8.60;99.90;;;;;;4931606;29;20063;-61
2021/12/24 06:22:16;;;;;;;47.53;19.90;;;8.60;99.90;;;;;;4931426;29;20078;-61
2021/12/24 06:24:42;;;;;;;34.58;19.70;;;8.60;99.90;;;;;;4948905;28;20138;-60
2021/12/24 06:27:08;;;;;;;43.55;21.02;;;8.60;99.90;;;;;;4954714;28;20051;-61
2021/12/24 06:29:34;;;;;;;41.30;20.67;;;8.60;99.90;;;;;;4950467;28;20047;-61
2021/12/24 06:32:01;;;;;;;40.92;21.73;;;8.60;99.90;;;;;;4950257;28;20126;-61
2021/12/24 06:34:30;;;;;;;39.22;21.05;;;8.60;99.90;;;;;;4950457;28;20055;-61
2021/12/24 06:36:57;;;;;;;39.92;21.67;;;8.60;99.90;;;;;;4948892;29;20082;-60
2021/12/24 06:39:24;;;;;;;41.60;21.02;;;8.50;99.90;;;;;;4947659;29;20063;-61
2021/12/24 06:41:50;;;;;;;36.97;20.33;;;8.50;99.90;;;;;;4950140;28;20110;-60
2021/12/24 06:44:16;;;;;;;36.40;19.85;;;8.60;99.90;;;;;;4949200;28;20066;-61
2021/12/24 06:46:43;;;;;;;36.00;20.48;;;8.50;99.90;;;;;;4948935;29;20439;-61
2021/12/24 06:49:11;;;;;;;43.05;20.92;;;8.50;99.90;;;;;;4945997;28;20059;-60
2021/12/24 06:51:37;;;;;;;33.58;18.85;;;8.60;99.90;;;;;;4949094;29;20339;-61
2021/12/24 06:54:05;;;;;;;43.38;18.55;;;8.60;99.90;;;;;;4931223;29;20043;-61
2021/12/24 06:56:31;;;;;;;39.58;18.85;;;8.50;99.90;;;;;;4947372;28;20102;-61
2021/12/24 06:58:57;;;;;;;32.17;17.83;;;8.50;99.90;;;;;;4917082;29;20366;-61
2021/12/24 07:01:24;;;;;;;31.90;16.40;;;8.50;99.90;;;;;;4935330;29;20098;-61
2021/12/24 07:03:52;;;;;;;25.30;16.55;;;8.50;99.90;;;;;;4968861;28;20043;-60
2021/12/24 07:06:18;;;;;;;30.63;14.80;;;8.50;99.90;;;;;;4950965;29;20047;-61
2021/12/24 07:08:44;;;;;;;32.95;15.15;;;8.50;99.90;;;;;;4950844;28;20483;-61
2021/12/24 07:11:10;;;;;;;32.67;15.45;;;8.50;99.90;;;;;;4950788;28;20047;-61
2021/12/24 07:13:36;;;;;;;29.08;14.35;;;8.50;99.90;;;;;;4953044;28;20486;-61
2021/12/24 07:16:03;;;;;;;31.17;14.45;;;8.50;99.90;;;;;;4951467;28;20047;-61
2021/12/24 07:18:29;;;;;;;32.45;14.43;;;8.40;99.90;;;;;;4949523;28;20079;-71
2021/12/24 07:20:55;;;;;;;34.83;15.32;;;8.50;99.90;;;;;;4916488;29;20050;-61
2021/12/24 07:23:21;;;;;;;33.95;14.60;;;8.50;99.90;;;;;;4950464;28;20081;-59
2021/12/24 07:25:47;;;;;;;33.33;15.48;;;8.50;99.90;;;;;;4966313;28;20051;-59
2021/12/24 07:28:13;;;;;;;34.88;13.35;;;8.40;99.90;;;;;;4934481;29;20057;-59
2021/12/24 07:30:40;;;;;;;35.80;13.82;;;8.40;99.90;;;;;;4949470;28;20043;-59
2021/12/24 07:33:06;;;;;;;34.50;14.90;;;8.40;99.90;;;;;;4966903;28;20050;-59
2021/12/24 07:35:32;;;;;;;24.17;12.25;;;8.40;99.90;;;;;;4966085;28;20843;-59
2021/12/24 07:37:58;;;;;;;33.10;14.50;;;8.40;99.90;;;;;;4934008;29;20394;-58
2021/12/24 07:40:26;;;;;;;27.40;13.07;;;8.40;99.90;;;;;;4949680;28;20469;-59
2021/12/24 07:42:54;;;;;;;30.42;12.85;;;8.50;99.90;;;;;;4949672;28;20503;-59
2021/12/24 07:45:20;;;;;;;27.65;12.60;;;8.30;99.90;;;;;;4950862;28;20043;-58
2021/12/24 07:47:55;;;;;;;75.07;49.00;;;8.30;99.90;;;;;;4949517;29;20082;-59
2021/12/24 07:52:53;;;;;;;25.27;11.77;;;8.30;99.90;;;;;;4952611;29;20055;-61
2021/12/24 07:55:19;;;;;;;32.72;12.07;;;8.30;99.90;;;;;;4950214;29;20043;-60
2021/12/24 07:57:49;;;;;;;26.42;11.00;;;8.30;99.90;;;;;;4950880;28;20125;-59
2021/12/24 08:00:16;;;;;;;25.38;10.63;;;8.30;99.90;;;;;;4951110;28;20410;-60
2021/12/24 08:02:43;;;;;;;25.85;10.18;;;8.30;99.90;;;;;;4952538;28;20058;-60
2021/12/24 08:05:13;;;;;;;19.92;9.77;;;8.30;99.90;;;;;;4935165;28;20055;-61
2021/12/24 08:07:39;;;;;;;27.27;10.73;;;8.30;99.90;;;;;;4967366;28;20577;-60
2021/12/24 08:10:06;;;;;;;23.08;9.52;;;8.40;99.90;;;;;;4963663;28;20067;-60
2021/12/24 08:12:32;;;;;;;22.13;8.60;;;8.40;99.90;;;;;;4967411;28;20059;-60
2021/12/24 08:14:58;;;;;;;28.50;8.75;;;8.30;99.90;;;;;;4918794;29;20043;-60
2021/12/24 08:17:24;;;;;;;24.13;9.55;;;8.40;99.90;;;;;;4938761;28;20098;-61
2021/12/24 08:19:50;;;;;;;22.40;7.80;;;8.40;99.90;;;;;;4949410;28;20063;-61
2021/12/24 08:22:16;;;;;;;23.23;8.15;;;8.40;99.90;;;;;;4942081;28;20047;-58
2021/12/24 08:24:42;;;;;;;19.88;7.97;;;8.40;99.90;;;;;;4947380;28;20092;-58
2021/12/24 08:27:10;;;;;;;18.83;7.60;;;8.40;99.90;;;;;;4946886;28;20057;-59
2021/12/24 08:29:38;;;;;;;28.73;8.73;;;8.40;99.90;;;;;;4932206;29;20097;-59
2021/12/24 08:32:10;;;;;;;22.52;8.15;;;8.40;99.90;;;;;;4961848;28;20075;-60
2021/12/24 08:34:38;;;;;;;26.45;8.38;;;8.40;99.90;;;;;;4932073;29;20376;-60
2021/12/24 08:37:07;;;;;;;28.55;9.88;;;8.40;99.90;;;;;;4929713;28;20382;-59
2021/12/24 08:39:33;;;;;;;24.70;9.15;;;8.40;99.90;;;;;;4963258;28;20122;-58
2021/12/24 08:42:00;;;;;;;29.98;11.48;;;8.40;99.90;;;;;;4949800;28;20114;-58
2021/12/24 08:44:29;;;;;;;34.53;11.32;;;8.40;99.90;;;;;;4948600;28;20391;-59
2021/12/24 08:46:57;;;;;;;26.92;9.57;;;8.40;99.90;;;;;;4947597;29;20059;-58
2021/12/24 08:49:26;;;;;;;26.30;10.18;;;8.40;99.90;;;;;;4932599;29;20118;-58
2021/12/24 08:51:52;;;;;;;28.25;9.98;;;8.40;99.90;;;;;;4950616;28;20391;-58
2021/12/24 08:54:21;;;;;;;25.60;10.32;;;8.40;99.90;;;;;;4948614;28;20051;-58
2021/12/24 08:56:48;;;;;;;29.33;8.75;;;8.50;99.90;;;;;;4951234;28;20046;-59
2021/12/24 08:59:14;;;;;;;27.13;9.45;;;8.50;99.90;;;;;;4951175;28;20106;-59
2021/12/24 09:01:44;;;;;;;27.15;9.38;;;8.50;99.90;;;;;;4932718;28;20043;-58
2021/12/24 09:04:12;;;;;;;24.73;8.30;;;8.50;99.90;;;;;;4950064;29;20066;-59
2021/12/24 09:06:40;;;;;;;25.67;8.00;;;8.50;99.90;;;;;;4948515;28;20082;-58
2021/12/24 09:09:07;;;;;;;20.75;7.28;;;8.50;99.90;;;;;;4948106;28;20055;-59
2021/12/24 09:11:35;;;;;;;27.88;8.98;;;8.50;99.90;;;;;;4949260;28;20062;-59
2021/12/24 09:14:01;;;;;;;19.73;7.60;;;8.50;99.90;;;;;;4949375;28;20492;-59
2021/12/24 09:16:28;;;;;;;17.38;6.90;;;8.50;99.90;;;;;;4966184;28;20050;-59
2021/12/24 09:19:01;;;;;;;23.50;8.43;;;8.40;99.90;;;;;;4949360;28;20078;-58
2021/12/24 09:21:28;;;;;;;22.38;8.05;;;8.50;99.90;;;;;;4948462;28;20051;-58
2021/12/24 09:23:56;;;;;;;23.80;7.82;;;8.50;99.90;;;;;;4950264;28;20055;-58
2021/12/24 09:26:28;;;;;;;20.52;8.00;;;8.50;99.90;;;;;;4949099;29;20039;-59
2021/12/24 09:28:56;;;;;;;21.77;8.05;;;8.50;99.90;;;;;;4949462;28;20055;-59
2021/12/24 09:31:25;;;;;;;24.70;8.07;;;8.50;99.90;;;;;;4946570;28;20049;-60
2021/12/24 09:33:52;;;;;;;22.63;8.80;;;8.50;99.90;;;;;;4947992;28;20126;-59
2021/12/24 09:36:24;;;;;;;29.48;8.88;;;8.50;99.90;;;;;;4944963;28;20043;-59
2021/12/24 09:38:52;;;;;;;23.35;9.35;;;8.50;99.90;;;;;;4945168;28;20047;-59
2021/12/24 09:41:19;;;;;;;17.08;7.85;;;8.50;99.90;;;;;;4964921;28;20059;-59
2021/12/24 09:43:46;;;;;;;20.90;8.30;;;8.50;99.90;;;;;;4948811;28;20102;-59
2021/12/24 09:46:12;;;;;;;27.85;9.43;;;8.60;99.90;;;;;;4949790;28;20439;-59
2021/12/24 09:48:39;;;;;;;32.17;9.65;;;8.60;99.90;;;;;;4917095;29;20047;-59
2021/12/24 09:51:06;;;;;;;23.75;9.63;;;8.60;99.90;;;;;;4948386;28;20048;-59
2021/12/24 09:53:32;;;;;;;26.15;10.05;;;8.60;99.90;;;;;;4947482;28;20043;-59
2021/12/24 09:55:58;;;;;;;32.00;8.98;;;8.60;99.90;;;;;;4949810;28;20139;-59
2021/12/24 09:58:24;;;;;;;24.95;10.57;;;8.60;99.90;;;;;;4945184;29;20403;-59
2021/12/24 10:00:51;;;;;;;29.52;9.07;;;8.60;99.90;;;;;;4921675;29;20051;-60
2021/12/24 10:03:37;;;;;;;32.72;9.50;;;8.60;99.90;;;;;;4949086;28;20055;-59
2021/12/24 10:06:05;;;;;;;25.65;8.50;;;8.60;99.90;;;;;;4963033;28;20047;-59
2021/12/24 10:08:32;;;;;;;25.58;9.70;;;8.60;99.90;;;;;;4949663;28;20126;-59
2021/12/24 10:11:05;;;;;;;30.13;9.32;;;8.70;99.90;;;;;;4948512;28;20231;-59
2021/12/24 10:13:41;;;;;;;22.77;7.50;;;8.70;99.90;;;;;;4950175;28;20039;-59
2021/12/24 10:16:09;;;;;;;26.70;9.00;;;8.70;99.90;;;;;;4949580;28;20390;-59
2021/12/24 10:18:50;;;;;;;24.95;8.82;;;8.70;99.90;;;;;;4915414;29;20109;-61
2021/12/24 10:21:18;;;;;;;23.20;8.38;;;8.70;99.90;;;;;;4946426;28;20051;-61
2021/12/24 10:23:49;;;;;;;24.60;8.98;;;8.70;99.90;;;;;;4961910;28;20055;-61
2021/12/24 10:26:35;;;;;;;24.45;9.20;;;8.70;99.90;;;;;;4945945;28;20055;-62
2021/12/24 10:29:15;;;;;;;29.05;9.65;;;8.70;99.90;;;;;;4945037;29;20040;-59
2021/12/24 10:31:51;;;;;;;29.52;9.52;;;8.70;99.90;;;;;;4948011;28;20570;-60
2021/12/24 10:34:19;;;;;;;24.58;9.77;;;8.60;99.90;;;;;;4950779;28;20066;-61
2021/12/24 10:37:25;;;;;;;28.40;9.55;;;8.60;99.90;;;;;;4935037;29;20043;-61
2021/12/24 10:39:55;;;;;;;34.38;10.85;;;8.60;99.90;;;;;;4938028;29;20050;-60
2021/12/24 10:42:37;;;;;;;24.10;10.93;;;8.60;99.90;;;;;;4935374;29;20427;-60
2021/12/24 10:45:14;;;;;;;29.45;11.35;;;8.60;99.90;;;;;;4970065;28;20122;-60
2021/12/24 10:47:41;;;;;;;27.75;11.07;;;8.60;99.90;;;;;;4950390;29;20051;-61
2021/12/24 10:55:34;;;;;;;31.17;11.57;;;8.60;99.90;;;;;;4902507;28;20047;-63
2021/12/24 10:58:06;;;;;;;39.10;12.13;;;8.60;99.90;;;;;;4934952;28;20062;-61
2021/12/24 11:00:41;;;;;;;28.67;11.43;;;8.60;99.90;;;;;;4944066;28;20414;-61
2021/12/24 11:03:14;;;;;;;33.88;10.43;;;8.60;99.90;;;;;;4953802;28;20438;-61
2021/12/24 11:05:43;;;;;;;24.30;10.02;;;8.60;99.90;;;;;;4942166;28;20113;-59
2021/12/24 11:08:14;;;;;;;24.83;9.85;;;8.60;99.90;;;;;;4939152;28;20058;-61
2021/12/24 11:10:43;;;;;;;25.20;8.55;;;8.60;99.90;;;;;;4936972;28;20104;-61
2021/12/24 11:13:13;;;;;;;26.10;9.43;;;8.60;99.90;;;;;;4958973;28;20394;-61
2021/12/24 11:15:52;;;;;;;26.52;10.18;;;8.60;99.90;;;;;;4949314;28;20050;-61
2021/12/24 11:18:48;;;;;;;20.27;7.10;;;8.50;99.90;;;;;;4951551;28;20050;-61
2021/12/24 11:21:23;;;;;;;16.20;7.45;;;8.50;99.90;;;;;;4918639;28;20438;-61
2021/12/24 11:23:50;;;;;;;18.15;6.13;;;8.50;99.90;;;;;;4945853;28;20082;-60
2021/12/24 11:26:20;;;;;;;15.00;6.13;;;8.50;99.90;;;;;;4944878;28;20057;-59
2021/12/24 11:28:47;;;;;;;19.15;7.47;;;8.50;99.90;;;;;;4962867;28;20050;-61
2021/12/24 11:31:19;;;;;;;18.63;6.03;;;8.50;99.90;;;;;;4961532;28;20443;-61
2021/12/24 11:33:48;;;;;;;12.43;5.55;;;8.50;99.90;;;;;;4969646;28;20130;-59
2021/12/24 11:36:17;;;;;;;6.20;4.65;;;8.30;99.90;;;;;;4961903;28;20264;-59
2021/12/24 11:38:46;;;;;;;12.60;10.40;;;7.90;99.90;;;;;;4956536;28;20841;-58
2021/12/24 11:41:14;;;;;;;23.95;18.80;;;7.70;99.90;;;;;;4973516;28;20940;-61
2021/12/24 11:43:43;;;;;;;14.65;10.80;;;7.50;99.90;;;;;;4959193;28;20098;-59
2021/12/24 11:46:12;;;;;;;5.68;4.50;;;7.30;99.90;;;;;;4956163;28;20074;-58
2021/12/24 11:48:38;;;;;;;16.55;14.10;;;7.30;99.90;;;;;;4946431;28;20054;-59
2021/12/24 11:51:19;;;;;;;8.60;7.70;;;7.20;99.90;;;;;;4956337;28;20046;-59
2021/12/24 11:53:46;;;;;;;8.57;6.93;;;7.20;99.90;;;;;;4974253;28;20568;-59
2021/12/24 11:56:16;;;;;;;8.02;5.60;;;7.10;99.90;;;;;;4964639;28;20651;-59
2021/12/24 11:58:46;;;;;;;10.98;9.48;;;7.10;99.90;;;;;;4968234;28;20039;-59
2021/12/24 12:01:16;;;;;;;10.88;9.65;;;7.20;99.90;;;;;;4938711;28;20371;-59
2021/12/24 12:03:45;;;;;;;5.75;5.15;;;7.10;99.90;;;;;;4967928;28;20406;-59
2021/12/24 12:06:34;;;;;;;3.80;2.67;;;7.10;99.90;;;;;;4967813;28;20502;-56
2021/12/24 12:09:06;;;;;;;19.42;12.23;;;7.20;99.90;;;;;;4983267;28;20117;-59
2021/12/24 12:11:36;;;;;;;26.50;19.83;;;7.20;99.90;;;;;;4967212;28;20047;-59
2021/12/24 12:14:07;;;;;;;23.95;17.40;;;7.10;99.90;;;;;;4967601;28;20475;-59
2021/12/24 12:16:39;;;;;;;9.10;7.72;;;7.00;99.90;;;;;;4952210;28;20585;-60
2021/12/24 12:19:22;;;;;;;13.70;10.48;;;7.00;99.90;;;;;;4969064;28;20054;-64
2021/12/24 12:25:34;;;;;;;4.22;2.58;;;6.90;99.90;;;;;;4966522;28;20109;-59
2021/12/24 12:28:09;;;;;;;16.65;13.38;;;7.00;99.90;;;;;;4967030;28;20054;-59
2021/12/24 12:30:40;;;;;;;21.95;16.83;;;7.00;99.90;;;;;;4970769;28;20042;-59
2021/12/24 12:33:10;;;;;;;23.60;18.98;;;7.00;99.90;;;;;;4969606;28;20133;-59
2021/12/24 12:35:53;;;;;;;4.57;2.67;;;7.10;99.90;;;;;;4970070;28;20446;-59
2021/12/24 12:38:33;;;;;;;7.07;5.00;;;7.10;99.90;;;;;;4971814;28;20054;-62
2021/12/24 12:41:31;;;;;;;5.10;3.95;;;7.10;99.90;;;;;;4977066;28;20066;-58
2021/12/24 12:43:58;;;;;;;14.90;11.00;;;7.10;99.90;;;;;;4969076;28;20441;-59
2021/12/24 12:46:30;;;;;;;5.13;3.47;;;7.10;99.90;;;;;;4970539;28;20058;-59
2021/12/24 12:49:00;;;;;;;8.80;6.53;;;7.00;99.90;;;;;;4969878;28;20516;-59
2021/12/24 12:51:58;;;;;;;5.53;3.50;;;7.00;99.90;;;;;;4953855;28;20043;-59
2021/12/24 12:54:40;;;;;;;21.92;17.38;;;7.00;99.90;;;;;;4971345;28;20055;-59
2021/12/24 12:57:14;;;;;;;4.00;2.35;;;7.00;99.90;;;;;;4970956;28;20077;-58
2021/12/24 13:00:01;;;;;;;4.10;3.03;;;7.00;99.90;;;;;;4953466;28;20061;-58
2021/12/24 13:03:16;;;;;;;14.77;11.70;;;7.00;99.90;;;;;;4967919;28;20051;-58
2021/12/24 13:05:42;;;;;;;4.30;2.65;;;7.00;99.90;;;;;;4966270;28;20457;-58
2021/12/24 13:08:16;;;;;;;4.63;3.45;;;7.00;99.90;;;;;;4967645;28;20113;-61
2021/12/24 13:11:03;;;;;;;5.43;3.67;;;6.90;99.90;;;;;;4969078;28;20507;-58
2021/12/24 13:13:31;;;;;;;2.72;2.10;;;6.90;99.90;;;;;;4968781;28;20078;-59
2021/12/24 13:15:58;;;;;;;4.97;2.72;;;7.00;99.90;;;;;;4970223;28;20529;-58
2021/12/24 13:18:32;;;;;;;3.63;2.75;;;6.90;99.90;;;;;;4968777;28;20517;-67
2021/12/24 13:23:37;;;;;;;2.70;2.40;;;6.90;99.90;;;;;;4968091;28;20078;-59
2021/12/24 13:26:21;;;;;;;3.40;2.85;;;6.80;99.90;;;;;;4950617;28;20078;-59
2021/12/24 13:28:54;;;;;;;3.72;2.88;;;6.90;99.90;;;;;;4960789;28;20050;-59
2021/12/24 13:31:21;;;;;;;3.85;2.72;;;6.80;99.90;;;;;;4983549;28;20047;-59
2021/12/24 13:33:47;;;;;;;3.42;2.83;;;6.70;99.90;;;;;;4966637;28;20549;-59
2021/12/24 13:36:14;;;;;;;4.07;3.40;;;6.70;99.90;;;;;;4969055;28;20059;-58
2021/12/24 13:38:40;;;;;;;5.32;4.03;;;6.80;99.90;;;;;;4984901;28;20050;-58
2021/12/24 13:41:06;;;;;;;5.22;4.32;;;6.70;99.90;;;;;;4968980;28;20046;-58
2021/12/24 13:43:36;;;;;;;4.28;3.88;;;6.70;99.90;;;;;;4933379;29;20058;-58
2021/12/24 13:46:11;;;;;;;4.95;3.47;;;6.70;99.90;;;;;;4950248;28;20039;-59
2021/12/24 13:49:09;;;;;;;5.15;4.13;;;6.70;99.90;;;;;;4968255;28;20514;-58
2021/12/24 13:54:33;;;;;;;4.85;3.88;;;6.70;99.90;;;;;;4967667;28;20047;-59
2021/12/24 13:57:03;;;;;;;6.13;4.28;;;6.70;99.90;;;;;;4969686;28;20458;-59
2021/12/24 13:59:31;;;;;;;4.45;3.33;;;6.60;99.90;;;;;;4966608;28;20046;-60
2021/12/24 14:01:57;;;;;;;4.50;3.58;;;6.60;99.90;;;;;;4968050;28;20050;-60
2021/12/24 14:04:24;;;;;;;4.03;3.17;;;6.60;99.90;;;;;;4967160;28;20039;-60
2021/12/24 14:06:56;;;;;;;4.50;3.90;;;6.60;99.90;;;;;;4967401;28;20054;-58
2021/12/24 14:09:29;;;;;;;;;;;6.60;99.90;;;;;;4969815;28;20035;-58
2021/12/24 14:11:56;;;;;;;3.50;2.53;;;6.60;99.90;;;;;;4969292;28;19922;-60
2021/12/24 14:14:28;;;;;;;5.18;3.03;;;6.60;99.90;;;;;;4965862;28;20038;-58
2021/12/24 14:19:46;;;;;;;6.30;3.50;;;6.60;99.90;;;;;;4968380;28;20051;-58
2021/12/24 14:22:14;;;;;;;4.40;3.63;;;6.60;99.90;;;;;;4963181;28;20038;-58
2021/12/24 14:25:00;;;;;;;4.95;3.38;;;6.60;99.90;;;;;;4969921;28;20471;-60
2021/12/24 14:27:28;;;;;;;4.32;3.60;;;6.60;99.90;;;;;;4970487;28;20043;-58
2021/12/24 14:30:19;;;;;;;4.57;3.90;;;6.60;99.90;;;;;;4969130;28;20174;-59
2021/12/24 14:32:49;;;;;;;4.03;3.38;;;6.70;99.90;;;;;;4961928;28;20050;-59
2021/12/24 14:35:23;;;;;;;4.32;3.80;;;6.70;99.90;;;;;;4968357;28;20058;-59
2021/12/24 14:38:15;;;;;;;5.80;3.67;;;6.70;99.90;;;;;;4968768;28;20154;-59
2021/12/24 14:40:42;;;;;;;4.53;3.47;;;6.70;99.90;;;;;;4950592;28;20616;-59
2021/12/24 14:43:15;;;;;;;5.22;4.40;;;6.60;99.90;;;;;;4967918;28;20055;-58
2021/12/24 14:45:47;;;;;;;6.10;3.70;;;6.60;99.90;;;;;;4966185;28;20109;-58
2021/12/24 14:48:25;;;;;;;6.10;4.55;;;6.60;99.90;;;;;;4980631;28;20432;-58
2021/12/24 14:50:58;;;;;;;8.70;6.20;;;6.60;99.90;;;;;;4935265;28;20406;-59
2021/12/24 14:54:04;;;;;;;38.63;27.83;;;6.60;99.90;;;;;;4964842;28;20051;-60
2021/12/24 14:56:36;;;;;;;9.90;6.70;;;6.60;99.90;;;;;;4928670;28;20042;-63